sensor_id;sensor_type;location;lat;lon;timestamp;P1;durP1;ratioP1;P2;durP2;ratioP2
22415;SDS011;12204;50.600;4.608;2022-10-16T00:02:45;29.25;;;15.32;;
22415;SDS011;12204;50.600;4.608;2022-10-16T00:07:50;28.60;;;15.23;;
22415;SDS011;12204;50.600;4.608;2022-10-16T00:12:54;29.20;;;15.10;;
22415;SDS011;12204;50.600;4.608;2022-10-16T00:17:58;31.25;;;14.48;;
22415;SDS011;12204;50.600;4.608;2022-10-16T00:23:03;27.73;;;14.38;;
22415;SDS011;12204;50.600;4.608;2022-10-16T00:28:07;26.15;;;13.57;;
22415;SDS011;12204;50.600;4.608;2022-10-16T00:33:11;26.45;;;13.77;;
22415;SDS011;12204;50.600;4.608;2022-10-16T00:38:16;25.38;;;13.57;;
22415;SDS011;12204;50.600;4.608;2022-10-16T00:43:33;25.13;;;12.95;;
22415;SDS011;12204;50.600;4.608;2022-10-16T00:48:45;22.70;;;12.35;;
22415;SDS011;12204;50.600;4.608;2022-10-16T00:53:56;23.10;;;12.35;;
22415;SDS011;12204;50.600;4.608;2022-10-16T00:59:01;27.58;;;12.43;;
22415;SDS011;12204;50.600;4.608;2022-10-16T01:04:13;22.23;;;11.43;;
22415;SDS011;12204;50.600;4.608;2022-10-16T01:09:20;23.63;;;11.07;;
22415;SDS011;12204;50.600;4.608;2022-10-16T01:14:32;23.52;;;11.52;;
22415;SDS011;12204;50.600;4.608;2022-10-16T01:19:51;20.17;;;10.38;;
22415;SDS011;12204;50.600;4.608;2022-10-16T01:25:16;19.70;;;10.18;;
22415;SDS011;12204;50.600;4.608;2022-10-16T01:30:30;18.98;;;9.32;;
22415;SDS011;12204;50.600;4.608;2022-10-16T01:35:37;18.88;;;10.07;;
22415;SDS011;12204;50.600;4.608;2022-10-16T01:40:47;18.40;;;9.13;;
22415;SDS011;12204;50.600;4.608;2022-10-16T01:45:59;17.45;;;9.35;;
22415;SDS011;12204;50.600;4.608;2022-10-16T01:51:05;18.07;;;9.17;;
22415;SDS011;12204;50.600;4.608;2022-10-16T01:56:13;16.75;;;9.40;;
22415;SDS011;12204;50.600;4.608;2022-10-16T02:01:23;21.08;;;9.05;;
22415;SDS011;12204;50.600;4.608;2022-10-16T02:06:29;17.67;;;8.23;;
22415;SDS011;12204;50.600;4.608;2022-10-16T02:11:33;17.20;;;8.27;;
22415;SDS011;12204;50.600;4.608;2022-10-16T02:16:39;14.57;;;7.25;;
22415;SDS011;12204;50.600;4.608;2022-10-16T02:21:47;17.48;;;7.80;;
22415;SDS011;12204;50.600;4.608;2022-10-16T02:26:57;16.10;;;7.80;;
22415;SDS011;12204;50.600;4.608;2022-10-16T02:32:12;17.05;;;7.75;;
22415;SDS011;12204;50.600;4.608;2022-10-16T02:37:19;13.88;;;7.50;;
22415;SDS011;12204;50.600;4.608;2022-10-16T02:42:27;15.13;;;7.43;;
22415;SDS011;12204;50.600;4.608;2022-10-16T02:47:36;15.18;;;6.95;;
22415;SDS011;12204;50.600;4.608;2022-10-16T02:52:39;12.30;;;6.43;;
22415;SDS011;12204;50.600;4.608;2022-10-16T02:57:43;12.77;;;6.85;;
22415;SDS011;12204;50.600;4.608;2022-10-16T03:02:48;12.63;;;6.78;;
22415;SDS011;12204;50.600;4.608;2022-10-16T03:07:52;12.55;;;6.47;;
22415;SDS011;12204;50.600;4.608;2022-10-16T03:12:56;11.90;;;6.15;;
22415;SDS011;12204;50.600;4.608;2022-10-16T03:18:01;13.52;;;6.38;;
22415;SDS011;12204;50.600;4.608;2022-10-16T03:23:04;11.93;;;5.88;;
22415;SDS011;12204;50.600;4.608;2022-10-16T03:28:09;12.32;;;6.15;;
22415;SDS011;12204;50.600;4.608;2022-10-16T03:33:14;11.38;;;5.78;;
22415;SDS011;12204;50.600;4.608;2022-10-16T03:38:18;11.27;;;5.70;;
22415;SDS011;12204;50.600;4.608;2022-10-16T03:43:22;12.57;;;5.75;;
22415;SDS011;12204;50.600;4.608;2022-10-16T03:48:27;12.30;;;5.40;;
22415;SDS011;12204;50.600;4.608;2022-10-16T03:53:31;11.93;;;5.30;;
22415;SDS011;12204;50.600;4.608;2022-10-16T03:58:34;9.23;;;4.88;;
22415;SDS011;12204;50.600;4.608;2022-10-16T04:03:39;11.05;;;5.40;;
22415;SDS011;12204;50.600;4.608;2022-10-16T04:08:43;10.68;;;4.93;;
22415;SDS011;12204;50.600;4.608;2022-10-16T04:13:47;13.50;;;4.82;;
22415;SDS011;12204;50.600;4.608;2022-10-16T04:18:52;11.30;;;4.88;;
22415;SDS011;12204;50.600;4.608;2022-10-16T04:23:56;9.52;;;4.70;;
22415;SDS011;12204;50.600;4.608;2022-10-16T04:28:59;9.43;;;4.53;;
22415;SDS011;12204;50.600;4.608;2022-10-16T04:34:04;10.48;;;4.70;;
22415;SDS011;12204;50.600;4.608;2022-10-16T04:39:08;9.13;;;4.30;;
22415;SDS011;12204;50.600;4.608;2022-10-16T04:44:12;12.85;;;4.43;;
22415;SDS011;12204;50.600;4.608;2022-10-16T04:49:17;9.43;;;4.05;;
22415;SDS011;12204;50.600;4.608;2022-10-16T04:54:20;11.60;;;3.92;;
22415;SDS011;12204;50.600;4.608;2022-10-16T04:59:24;9.23;;;4.07;;
22415;SDS011;12204;50.600;4.608;2022-10-16T05:04:29;9.18;;;4.00;;
22415;SDS011;12204;50.600;4.608;2022-10-16T05:09:32;8.80;;;4.03;;
22415;SDS011;12204;50.600;4.608;2022-10-16T05:14:36;7.07;;;3.72;;
22415;SDS011;12204;50.600;4.608;2022-10-16T05:19:41;7.72;;;3.80;;
22415;SDS011;12204;50.600;4.608;2022-10-16T05:24:45;9.10;;;3.58;;
22415;SDS011;12204;50.600;4.608;2022-10-16T05:29:49;7.82;;;3.90;;
22415;SDS011;12204;50.600;4.608;2022-10-16T05:34:54;8.38;;;3.50;;
22415;SDS011;12204;50.600;4.608;2022-10-16T05:39:58;7.45;;;3.00;;
22415;SDS011;12204;50.600;4.608;2022-10-16T05:45:01;8.07;;;2.90;;
22415;SDS011;12204;50.600;4.608;2022-10-16T05:50:08;7.80;;;2.90;;
22415;SDS011;12204;50.600;4.608;2022-10-16T05:55:11;4.90;;;2.40;;
22415;SDS011;12204;50.600;4.608;2022-10-16T06:00:15;5.50;;;2.53;;
22415;SDS011;12204;50.600;4.608;2022-10-16T06:05:21;5.82;;;2.10;;
22415;SDS011;12204;50.600;4.608;2022-10-16T06:10:24;5.70;;;2.25;;
22415;SDS011;12204;50.600;4.608;2022-10-16T06:15:28;5.60;;;2.28;;
22415;SDS011;12204;50.600;4.608;2022-10-16T06:20:33;4.53;;;1.98;;
22415;SDS011;12204;50.600;4.608;2022-10-16T06:25:36;6.95;;;2.25;;
22415;SDS011;12204;50.600;4.608;2022-10-16T06:30:40;4.65;;;1.90;;
22415;SDS011;12204;50.600;4.608;2022-10-16T06:35:46;5.25;;;2.20;;
22415;SDS011;12204;50.600;4.608;2022-10-16T06:40:50;5.30;;;2.10;;
22415;SDS011;12204;50.600;4.608;2022-10-16T06:45:53;4.78;;;1.83;;
22415;SDS011;12204;50.600;4.608;2022-10-16T06:51:00;4.55;;;1.92;;
22415;SDS011;12204;50.600;4.608;2022-10-16T06:56:07;4.57;;;1.77;;
22415;SDS011;12204;50.600;4.608;2022-10-16T07:01:12;5.57;;;1.80;;
22415;SDS011;12204;50.600;4.608;2022-10-16T07:06:20;7.07;;;1.80;;
22415;SDS011;12204;50.600;4.608;2022-10-16T07:11:26;5.40;;;2.00;;
22415;SDS011;12204;50.600;4.608;2022-10-16T07:16:30;5.00;;;1.98;;
22415;SDS011;12204;50.600;4.608;2022-10-16T07:21:37;5.28;;;1.52;;
22415;SDS011;12204;50.600;4.608;2022-10-16T07:26:41;9.73;;;1.80;;
22415;SDS011;12204;50.600;4.608;2022-10-16T07:31:47;12.02;;;1.88;;
22415;SDS011;12204;50.600;4.608;2022-10-16T07:36:54;11.48;;;1.85;;
22415;SDS011;12204;50.600;4.608;2022-10-16T07:41:58;7.43;;;2.10;;
22415;SDS011;12204;50.600;4.608;2022-10-16T07:47:02;7.10;;;1.70;;
22415;SDS011;12204;50.600;4.608;2022-10-16T07:52:07;7.55;;;1.83;;
22415;SDS011;12204;50.600;4.608;2022-10-16T07:57:10;4.82;;;1.75;;
22415;SDS011;12204;50.600;4.608;2022-10-16T08:02:20;9.75;;;2.10;;
22415;SDS011;12204;50.600;4.608;2022-10-16T08:07:25;5.20;;;1.83;;
22415;SDS011;12204;50.600;4.608;2022-10-16T08:12:29;6.72;;;1.92;;
22415;SDS011;12204;50.600;4.608;2022-10-16T08:17:32;6.65;;;1.90;;
22415;SDS011;12204;50.600;4.608;2022-10-16T08:22:37;13.82;;;2.70;;
22415;SDS011;12204;50.600;4.608;2022-10-16T08:27:41;18.52;;;5.78;;
22415;SDS011;12204;50.600;4.608;2022-10-16T08:32:46;25.65;;;8.10;;
22415;SDS011;12204;50.600;4.608;2022-10-16T08:37:51;18.67;;;7.72;;
22415;SDS011;12204;50.600;4.608;2022-10-16T08:42:59;17.15;;;6.82;;
22415;SDS011;12204;50.600;4.608;2022-10-16T08:48:25;13.88;;;6.47;;
22415;SDS011;12204;50.600;4.608;2022-10-16T08:53:38;13.55;;;5.90;;
22415;SDS011;12204;50.600;4.608;2022-10-16T08:58:47;13.13;;;5.18;;
22415;SDS011;12204;50.600;4.608;2022-10-16T09:04:05;12.82;;;5.10;;
22415;SDS011;12204;50.600;4.608;2022-10-16T09:09:46;13.40;;;4.97;;
22415;SDS011;12204;50.600;4.608;2022-10-16T09:15:13;12.70;;;5.13;;
22415;SDS011;12204;50.600;4.608;2022-10-16T09:20:32;12.55;;;5.03;;
22415;SDS011;12204;50.600;4.608;2022-10-16T09:25:50;12.57;;;5.10;;
22415;SDS011;12204;50.600;4.608;2022-10-16T09:30:56;10.30;;;4.53;;
22415;SDS011;12204;50.600;4.608;2022-10-16T09:36:00;10.27;;;4.70;;
22415;SDS011;12204;50.600;4.608;2022-10-16T09:46:25;9.68;;;3.90;;
22415;SDS011;12204;50.600;4.608;2022-10-16T09:51:32;9.05;;;4.22;;
22415;SDS011;12204;50.600;4.608;2022-10-16T09:56:39;10.38;;;4.30;;
22415;SDS011;12204;50.600;4.608;2022-10-16T10:01:47;9.75;;;4.05;;
22415;SDS011;12204;50.600;4.608;2022-10-16T10:06:54;8.30;;;3.95;;
22415;SDS011;12204;50.600;4.608;2022-10-16T10:12:01;8.88;;;3.70;;
22415;SDS011;12204;50.600;4.608;2022-10-16T10:17:13;10.57;;;4.00;;
22415;SDS011;12204;50.600;4.608;2022-10-16T10:22:28;7.72;;;3.90;;
22415;SDS011;12204;50.600;4.608;2022-10-16T10:27:39;8.20;;;3.50;;
22415;SDS011;12204;50.600;4.608;2022-10-16T10:32:57;8.25;;;3.20;;
22415;SDS011;12204;50.600;4.608;2022-10-16T10:38:24;7.63;;;3.08;;
22415;SDS011;12204;50.600;4.608;2022-10-16T10:43:44;8.00;;;3.30;;
22415;SDS011;12204;50.600;4.608;2022-10-16T10:49:08;9.00;;;3.72;;
22415;SDS011;12204;50.600;4.608;2022-10-16T10:54:45;8.25;;;3.30;;
22415;SDS011;12204;50.600;4.608;2022-10-16T11:00:05;6.60;;;3.20;;
22415;SDS011;12204;50.600;4.608;2022-10-16T11:05:27;7.13;;;3.38;;
22415;SDS011;12204;50.600;4.608;2022-10-16T11:10:47;6.93;;;3.08;;
22415;SDS011;12204;50.600;4.608;2022-10-16T11:15:58;6.80;;;2.75;;
22415;SDS011;12204;50.600;4.608;2022-10-16T11:21:10;6.13;;;2.78;;
22415;SDS011;12204;50.600;4.608;2022-10-16T11:26:18;7.40;;;2.92;;
22415;SDS011;12204;50.600;4.608;2022-10-16T11:31:32;6.65;;;2.90;;
22415;SDS011;12204;50.600;4.608;2022-10-16T11:36:42;6.53;;;2.83;;
22415;SDS011;12204;50.600;4.608;2022-10-16T11:41:54;7.05;;;3.00;;
22415;SDS011;12204;50.600;4.608;2022-10-16T11:47:10;7.40;;;2.95;;
22415;SDS011;12204;50.600;4.608;2022-10-16T11:52:50;6.65;;;2.70;;
22415;SDS011;12204;50.600;4.608;2022-10-16T11:58:00;6.32;;;2.50;;
22415;SDS011;12204;50.600;4.608;2022-10-16T12:03:14;6.35;;;2.75;;
22415;SDS011;12204;50.600;4.608;2022-10-16T12:08:25;6.00;;;2.47;;
22415;SDS011;12204;50.600;4.608;2022-10-16T12:13:31;6.60;;;2.70;;
22415;SDS011;12204;50.600;4.608;2022-10-16T12:18:42;7.60;;;2.10;;
22415;SDS011;12204;50.600;4.608;2022-10-16T12:23:48;8.02;;;2.28;;
22415;SDS011;12204;50.600;4.608;2022-10-16T12:28:54;7.43;;;2.27;;
22415;SDS011;12204;50.600;4.608;2022-10-16T12:34:19;6.93;;;2.20;;
22415;SDS011;12204;50.600;4.608;2022-10-16T12:39:30;6.07;;;2.20;;
22415;SDS011;12204;50.600;4.608;2022-10-16T12:44:33;6.10;;;2.10;;
22415;SDS011;12204;50.600;4.608;2022-10-16T12:49:47;7.03;;;2.00;;
22415;SDS011;12204;50.600;4.608;2022-10-16T12:54:55;6.63;;;2.20;;
22415;SDS011;12204;50.600;4.608;2022-10-16T13:00:03;6.80;;;2.28;;
22415;SDS011;12204;50.600;4.608;2022-10-16T13:05:26;4.47;;;1.90;;
22415;SDS011;12204;50.600;4.608;2022-10-16T13:10:47;6.57;;;2.25;;
22415;SDS011;12204;50.600;4.608;2022-10-16T13:16:12;4.53;;;1.90;;
22415;SDS011;12204;50.600;4.608;2022-10-16T13:21:31;4.78;;;2.00;;
22415;SDS011;12204;50.600;4.608;2022-10-16T13:26:46;5.15;;;1.80;;
22415;SDS011;12204;50.600;4.608;2022-10-16T13:32:00;5.03;;;1.85;;
22415;SDS011;12204;50.600;4.608;2022-10-16T13:37:18;4.85;;;1.73;;
22415;SDS011;12204;50.600;4.608;2022-10-16T13:42:24;4.13;;;1.67;;
22415;SDS011;12204;50.600;4.608;2022-10-16T13:47:30;4.50;;;1.67;;
22415;SDS011;12204;50.600;4.608;2022-10-16T13:52:36;4.57;;;1.70;;
22415;SDS011;12204;50.600;4.608;2022-10-16T13:57:40;6.00;;;1.70;;
22415;SDS011;12204;50.600;4.608;2022-10-16T14:02:44;4.90;;;1.90;;
22415;SDS011;12204;50.600;4.608;2022-10-16T14:07:55;4.85;;;1.58;;
22415;SDS011;12204;50.600;4.608;2022-10-16T14:13:00;4.60;;;1.60;;
22415;SDS011;12204;50.600;4.608;2022-10-16T14:18:07;4.13;;;1.65;;
22415;SDS011;12204;50.600;4.608;2022-10-16T14:23:23;4.97;;;1.80;;
22415;SDS011;12204;50.600;4.608;2022-10-16T14:28:41;4.18;;;1.63;;
22415;SDS011;12204;50.600;4.608;2022-10-16T14:33:51;4.13;;;1.60;;
22415;SDS011;12204;50.600;4.608;2022-10-16T14:39:00;4.10;;;1.58;;
22415;SDS011;12204;50.600;4.608;2022-10-16T14:44:09;4.18;;;1.60;;
22415;SDS011;12204;50.600;4.608;2022-10-16T14:49:16;3.25;;;1.40;;
22415;SDS011;12204;50.600;4.608;2022-10-16T14:54:24;3.30;;;1.42;;
22415;SDS011;12204;50.600;4.608;2022-10-16T14:59:28;4.60;;;1.63;;
22415;SDS011;12204;50.600;4.608;2022-10-16T15:04:37;3.78;;;1.50;;
22415;SDS011;12204;50.600;4.608;2022-10-16T15:09:43;5.05;;;1.65;;
22415;SDS011;12204;50.600;4.608;2022-10-16T15:14:49;3.58;;;1.30;;
22415;SDS011;12204;50.600;4.608;2022-10-16T15:19:53;3.80;;;1.60;;
22415;SDS011;12204;50.600;4.608;2022-10-16T15:24:58;4.15;;;1.50;;
22415;SDS011;12204;50.600;4.608;2022-10-16T15:30:02;3.85;;;1.60;;
22415;SDS011;12204;50.600;4.608;2022-10-16T15:35:07;4.07;;;1.50;;
22415;SDS011;12204;50.600;4.608;2022-10-16T15:40:14;4.43;;;1.60;;
22415;SDS011;12204;50.600;4.608;2022-10-16T15:45:19;4.07;;;1.60;;
22415;SDS011;12204;50.600;4.608;2022-10-16T15:50:23;3.40;;;1.40;;
22415;SDS011;12204;50.600;4.608;2022-10-16T15:55:28;4.38;;;1.30;;
22415;SDS011;12204;50.600;4.608;2022-10-16T16:00:32;3.70;;;1.45;;
22415;SDS011;12204;50.600;4.608;2022-10-16T16:05:37;2.63;;;1.20;;
22415;SDS011;12204;50.600;4.608;2022-10-16T16:10:57;3.08;;;1.30;;
22415;SDS011;12204;50.600;4.608;2022-10-16T16:16:01;3.28;;;1.27;;
22415;SDS011;12204;50.600;4.608;2022-10-16T16:21:10;3.97;;;1.27;;
22415;SDS011;12204;50.600;4.608;2022-10-16T16:26:23;3.38;;;1.17;;
22415;SDS011;12204;50.600;4.608;2022-10-16T16:31:33;3.20;;;1.30;;
22415;SDS011;12204;50.600;4.608;2022-10-16T16:36:37;3.03;;;1.25;;
22415;SDS011;12204;50.600;4.608;2022-10-16T16:41:42;3.30;;;1.20;;
22415;SDS011;12204;50.600;4.608;2022-10-16T16:46:46;2.72;;;1.10;;
22415;SDS011;12204;50.600;4.608;2022-10-16T16:51:52;3.55;;;1.20;;
22415;SDS011;12204;50.600;4.608;2022-10-16T16:56:57;2.38;;;1.10;;
22415;SDS011;12204;50.600;4.608;2022-10-16T17:02:01;4.57;;;1.42;;
22415;SDS011;12204;50.600;4.608;2022-10-16T17:07:06;4.53;;;1.52;;
22415;SDS011;12204;50.600;4.608;2022-10-16T17:12:11;3.67;;;1.58;;
22415;SDS011;12204;50.600;4.608;2022-10-16T17:17:15;6.68;;;3.00;;
22415;SDS011;12204;50.600;4.608;2022-10-16T17:22:18;5.45;;;2.42;;
22415;SDS011;12204;50.600;4.608;2022-10-16T17:27:23;8.27;;;2.70;;
22415;SDS011;12204;50.600;4.608;2022-10-16T17:32:27;6.65;;;2.58;;
22415;SDS011;12204;50.600;4.608;2022-10-16T17:37:31;5.25;;;2.53;;
22415;SDS011;12204;50.600;4.608;2022-10-16T17:42:36;6.30;;;2.45;;
22415;SDS011;12204;50.600;4.608;2022-10-16T17:47:39;6.90;;;2.42;;
22415;SDS011;12204;50.600;4.608;2022-10-16T17:52:43;13.98;;;2.20;;
22415;SDS011;12204;50.600;4.608;2022-10-16T17:57:48;9.88;;;2.20;;
22415;SDS011;12204;50.600;4.608;2022-10-16T18:02:53;7.88;;;2.10;;
22415;SDS011;12204;50.600;4.608;2022-10-16T18:07:57;7.45;;;1.90;;
22415;SDS011;12204;50.600;4.608;2022-10-16T18:13:02;8.13;;;1.90;;
22415;SDS011;12204;50.600;4.608;2022-10-16T18:18:06;4.35;;;1.70;;
22415;SDS011;12204;50.600;4.608;2022-10-16T18:23:09;4.75;;;1.80;;
22415;SDS011;12204;50.600;4.608;2022-10-16T18:28:15;5.07;;;1.50;;
22415;SDS011;12204;50.600;4.608;2022-10-16T18:33:18;6.28;;;1.40;;
22415;SDS011;12204;50.600;4.608;2022-10-16T18:38:22;4.45;;;1.50;;
22415;SDS011;12204;50.600;4.608;2022-10-16T18:43:27;5.70;;;1.65;;
22415;SDS011;12204;50.600;4.608;2022-10-16T18:48:31;4.95;;;1.50;;
22415;SDS011;12204;50.600;4.608;2022-10-16T18:53:36;5.10;;;1.70;;
22415;SDS011;12204;50.600;4.608;2022-10-16T18:58:43;4.10;;;1.40;;
22415;SDS011;12204;50.600;4.608;2022-10-16T19:03:52;4.32;;;1.50;;
22415;SDS011;12204;50.600;4.608;2022-10-16T19:08:58;3.28;;;1.40;;
22415;SDS011;12204;50.600;4.608;2022-10-16T19:14:04;5.15;;;1.40;;
22415;SDS011;12204;50.600;4.608;2022-10-16T19:19:10;5.20;;;1.40;;
22415;SDS011;12204;50.600;4.608;2022-10-16T19:24:18;3.10;;;1.30;;
22415;SDS011;12204;50.600;4.608;2022-10-16T19:29:24;3.90;;;1.10;;
22415;SDS011;12204;50.600;4.608;2022-10-16T19:34:27;2.58;;;1.10;;
22415;SDS011;12204;50.600;4.608;2022-10-16T19:39:31;3.97;;;1.40;;
22415;SDS011;12204;50.600;4.608;2022-10-16T19:44:36;3.42;;;1.27;;
22415;SDS011;12204;50.600;4.608;2022-10-16T19:49:40;4.13;;;1.20;;
22415;SDS011;12204;50.600;4.608;2022-10-16T19:54:44;3.72;;;1.30;;
22415;SDS011;12204;50.600;4.608;2022-10-16T19:59:51;4.65;;;1.30;;
22415;SDS011;12204;50.600;4.608;2022-10-16T20:04:55;3.88;;;1.20;;
22415;SDS011;12204;50.600;4.608;2022-10-16T20:09:59;3.70;;;1.33;;
22415;SDS011;12204;50.600;4.608;2022-10-16T20:15:05;2.35;;;1.13;;
22415;SDS011;12204;50.600;4.608;2022-10-16T20:25:14;4.60;;;1.13;;
22415;SDS011;12204;50.600;4.608;2022-10-16T20:30:21;3.05;;;1.10;;
22415;SDS011;12204;50.600;4.608;2022-10-16T20:35:24;3.40;;;1.20;;
22415;SDS011;12204;50.600;4.608;2022-10-16T20:40:28;3.30;;;1.15;;
22415;SDS011;12204;50.600;4.608;2022-10-16T20:45:34;3.10;;;1.20;;
22415;SDS011;12204;50.600;4.608;2022-10-16T20:50:38;3.40;;;1.10;;
22415;SDS011;12204;50.600;4.608;2022-10-16T20:55:43;2.97;;;1.20;;
22415;SDS011;12204;50.600;4.608;2022-10-16T21:00:49;4.07;;;1.60;;
22415;SDS011;12204;50.600;4.608;2022-10-16T21:05:53;50.85;;;24.52;;
22415;SDS011;12204;50.600;4.608;2022-10-16T21:11:00;61.15;;;26.92;;
22415;SDS011;12204;50.600;4.608;2022-10-16T21:16:13;72.75;;;31.48;;
22415;SDS011;12204;50.600;4.608;2022-10-16T21:21:19;69.40;;;32.00;;
22415;SDS011;12204;50.600;4.608;2022-10-16T21:26:25;62.05;;;30.45;;
22415;SDS011;12204;50.600;4.608;2022-10-16T21:31:33;62.72;;;29.55;;
22415;SDS011;12204;50.600;4.608;2022-10-16T21:36:38;59.35;;;29.55;;
22415;SDS011;12204;50.600;4.608;2022-10-16T21:41:44;58.70;;;29.48;;
22415;SDS011;12204;50.600;4.608;2022-10-16T21:46:52;54.95;;;27.73;;
22415;SDS011;12204;50.600;4.608;2022-10-16T21:51:56;50.97;;;27.08;;
22415;SDS011;12204;50.600;4.608;2022-10-16T21:56:59;52.72;;;26.40;;
22415;SDS011;12204;50.600;4.608;2022-10-16T22:02:09;52.22;;;26.13;;
22415;SDS011;12204;50.600;4.608;2022-10-16T22:07:12;47.80;;;24.52;;
22415;SDS011;12204;50.600;4.608;2022-10-16T22:12:16;48.58;;;24.77;;
22415;SDS011;12204;50.600;4.608;2022-10-16T22:17:21;44.42;;;23.70;;
22415;SDS011;12204;50.600;4.608;2022-10-16T22:22:25;44.13;;;22.90;;
22415;SDS011;12204;50.600;4.608;2022-10-16T22:27:28;41.08;;;22.38;;
22415;SDS011;12204;50.600;4.608;2022-10-16T22:32:33;42.13;;;21.52;;
22415;SDS011;12204;50.600;4.608;2022-10-16T22:37:37;45.05;;;22.55;;
22415;SDS011;12204;50.600;4.608;2022-10-16T22:42:40;40.65;;;21.55;;
22415;SDS011;12204;50.600;4.608;2022-10-16T22:47:45;39.58;;;20.38;;
22415;SDS011;12204;50.600;4.608;2022-10-16T22:52:49;39.75;;;19.85;;
22415;SDS011;12204;50.600;4.608;2022-10-16T22:57:54;38.75;;;20.27;;
22415;SDS011;12204;50.600;4.608;2022-10-16T23:02:59;37.40;;;19.83;;
22415;SDS011;12204;50.600;4.608;2022-10-16T23:08:03;35.65;;;19.52;;
22415;SDS011;12204;50.600;4.608;2022-10-16T23:13:07;36.03;;;18.80;;
22415;SDS011;12204;50.600;4.608;2022-10-16T23:18:13;37.55;;;19.40;;
22415;SDS011;12204;50.600;4.608;2022-10-16T23:23:16;37.08;;;18.73;;
22415;SDS011;12204;50.600;4.608;2022-10-16T23:28:20;36.50;;;18.52;;
22415;SDS011;12204;50.600;4.608;2022-10-16T23:33:25;36.05;;;17.83;;
22415;SDS011;12204;50.600;4.608;2022-10-16T23:38:28;35.00;;;17.73;;
22415;SDS011;12204;50.600;4.608;2022-10-16T23:43:32;32.78;;;16.45;;
22415;SDS011;12204;50.600;4.608;2022-10-16T23:48:37;34.25;;;17.13;;
22415;SDS011;12204;50.600;4.608;2022-10-16T23:53:41;37.25;;;17.00;;
22415;SDS011;12204;50.600;4.608;2022-10-16T23:58:45;38.70;;;16.58;;
